Map

Track Data

SID SEASON NUMBER BASIN SUBBASIN NAME ISO_TIME NATURE LAT LON WMO_WIND WMO_PRES WMO_AGENCY TRACK_TYPE DIST2LAND LANDFALL IFLAG USA_AGENCY USA_ATCF_ID USA_LAT USA_LON USA_RECORD USA_STATUS USA_WIND USA_PRES USA_SSHS USA_R34_NE USA_R34_SE USA_R34_SW USA_R34_NW USA_R50_NE USA_R50_SE USA_R50_SW USA_R50_NW USA_R64_NE USA_R64_SE USA_R64_SW USA_R64_NW USA_POCI USA_ROCI USA_RMW USA_EYE TOKYO_LAT TOKYO_LON TOKYO_GRADE TOKYO_WIND TOKYO_PRES TOKYO_R50_DIR TOKYO_R50_LONG TOKYO_R50_SHORT TOKYO_R30_DIR TOKYO_R30_LONG TOKYO_R30_SHORT TOKYO_LAND CMA_LAT CMA_LON CMA_CAT CMA_WIND CMA_PRES HKO_LAT HKO_LON HKO_CAT HKO_WIND HKO_PRES NEWDELHI_LAT NEWDELHI_LON NEWDELHI_GRADE NEWDELHI_WIND NEWDELHI_PRES NEWDELHI_CI NEWDELHI_DP NEWDELHI_POCI REUNION_LAT REUNION_LON REUNION_TYPE REUNION_WIND REUNION_PRES REUNION_TNUM REUNION_CI REUNION_RMW REUNION_R34_NE REUNION_R34_SE REUNION_R34_SW REUNION_R34_NW REUNION_R50_NE REUNION_R50_SE REUNION_R50_SW REUNION_R50_NW REUNION_R64_NE REUNION_R64_SE REUNION_R64_SW REUNION_R64_NW BOM_LAT BOM_LON BOM_TYPE BOM_WIND BOM_PRES BOM_TNUM BOM_CI BOM_RMW BOM_R34_NE BOM_R34_SE BOM_R34_SW BOM_R34_NW BOM_R50_NE BOM_R50_SE BOM_R50_SW BOM_R50_NW BOM_R64_NE BOM_R64_SE BOM_R64_SW BOM_R64_NW BOM_ROCI BOM_POCI BOM_EYE BOM_POS_METHOD BOM_PRES_METHOD NADI_LAT NADI_LON NADI_CAT NADI_WIND NADI_PRES WELLINGTON_LAT WELLINGTON_LON WELLINGTON_WIND WELLINGTON_PRES DS824_LAT DS824_LON DS824_STAGE DS824_WIND DS824_PRES TD9636_LAT TD9636_LON TD9636_STAGE TD9636_WIND TD9636_PRES TD9635_LAT TD9635_LON TD9635_WIND TD9635_PRES TD9635_ROCI NEUMANN_LAT NEUMANN_LON NEUMANN_CLASS NEUMANN_WIND NEUMANN_PRES MLC_LAT MLC_LON MLC_CLASS MLC_WIND MLC_PRES USA_GUST BOM_GUST BOM_GUST_PER REUNION_GUST REUNION_GUST_PER USA_SEAHGT USA_SEARAD_NE USA_SEARAD_SE USA_SEARAD_SW USA_SEARAD_NW STORM_SPEED STORM_DIR
1892255N22273 1892 42 NA GM NOT_NAMED 1892-09-10 12:00:00 TS 21.8000 -87.2000 main 35 35 _____________O -1 21.8000 -87.2000 TS 35 9 335
1892255N22273 1892 42 NA GM NOT_NAMED 1892-09-10 15:00:00 TS 22.2126 -87.4097 main 84 84 _____________P -1 22.2126 -87.4097 TS 37 9 335
1892255N22273 1892 42 NA GM NOT_NAMED 1892-09-10 18:00:00 TS 22.6000 -87.6000 main 123 123 _____________O -1 22.6000 -87.6000 TS 40 8 337
1892255N22273 1892 42 NA GM NOT_NAMED 1892-09-10 21:00:00 TS 22.9500 -87.7577 main 156 156 _____________P -1 22.9500 -87.7577 TS 42 8 338
1892255N22273 1892 42 NA GM NOT_NAMED 1892-09-11 00:00:00 TS 23.3000 -87.9000 main 201 201 _____________O -1 23.3000 -87.9000 TS 45 8 340
1892255N22273 1892 42 NA GM NOT_NAMED 1892-09-11 03:00:00 TS 23.7000 -88.0500 main 245 245 _____________P -1 23.7000 -88.0500 TS 45 9 341
1892255N22273 1892 42 NA GM NOT_NAMED 1892-09-11 06:00:00 TS 24.1000 -88.2000 main 290 290 _____________O -1 24.1000 -88.2000 TS 45 8 338
1892255N22273 1892 42 NA GM NOT_NAMED 1892-09-11 09:00:00 TS 24.4425 -88.3799 main 324 324 _____________P -1 24.4425 -88.3799 TS 45 8 339
1892255N22273 1892 42 NA GM NOT_NAMED 1892-09-11 12:00:00 TS 24.8000 -88.5000 main 368 368 _____________O -1 24.8000 -88.5000 TS 45 8 354
1892255N22273 1892 42 NA GM NOT_NAMED 1892-09-11 15:00:00 TS 25.2425 -88.4803 main 413 374 _____________P -1 25.2425 -88.4803 TS 45 9 5
1892255N22273 1892 42 NA GM NOT_NAMED 1892-09-11 18:00:00 TS 25.7000 -88.4000 main 374 331 _____________O -1 25.7000 -88.4000 TS 45 9 8
1892255N22273 1892 42 NA GM NOT_NAMED 1892-09-11 21:00:00 TS 26.1075 -88.3500 main 333 290 _____________P -1 26.1075 -88.3500 TS 45 8 6
1892255N22273 1892 42 NA GM NOT_NAMED 1892-09-12 00:00:00 TS 26.5000 -88.3000 main 290 247 _____________O -1 26.5000 -88.3000 TS 45 8 6
1892255N22273 1892 42 NA GM NOT_NAMED 1892-09-12 03:00:00 TS 26.9000 -88.2500 main 250 209 _____________P -1 26.9000 -88.2500 TS 45 8 6
1892255N22273 1892 42 NA GM NOT_NAMED 1892-09-12 06:00:00 TS 27.3000 -88.2000 main 209 169 _____________O -1 27.3000 -88.2000 TS 45 8 5
1892255N22273 1892 42 NA GM NOT_NAMED 1892-09-12 09:00:00 TS 27.7150 -88.1648 main 169 140 _____________P -1 27.7150 -88.1648 TS 45 8 6
1892255N22273 1892 42 NA GM NOT_NAMED 1892-09-12 12:00:00 TS 28.1000 -88.1000 main 140 124 _____________O -1 28.1000 -88.1000 TS 45 7 14
1892255N22273 1892 42 NA GM NOT_NAMED 1892-09-12 15:00:00 TS 28.4150 -87.9650 main 124 120 _____________P -1 28.4150 -87.9650 TS 42 7 24
1892255N22273 1892 42 NA GM NOT_NAMED 1892-09-12 18:00:00 TS 28.7000 -87.8000 main 124 121 _____________O -1 28.7000 -87.8000 TS 40 6 25
1892255N22273 1892 42 NA GM NOT_NAMED 1892-09-12 21:00:00 TS 29.0000 -87.6499 main 136 111 _____________P -1 29.0000 -87.6499 TS 37 7 24
1892255N22273 1892 42 NA GM NOT_NAMED 1892-09-13 00:00:00 TS 29.3000 -87.5000 main 111 78 _____________O -1 29.3000 -87.5000 TS 35 7 24
1892255N22273 1892 42 NA GM NOT_NAMED 1892-09-13 03:00:00 TS 29.6000 -87.3425 main 78 44 _____________P -1 29.6000 -87.3425 TS 35 7 23
1892255N22273 1892 42 NA GM NOT_NAMED 1892-09-13 06:00:00 TS 29.9000 -87.2000 main 44 14 _____________O -1 29.9000 -87.2000 TS 35 6 19
1892255N22273 1892 42 NA GM NOT_NAMED 1892-09-13 09:00:00 TS 30.1699 -87.1145 main 14 0 _____________P -1 30.1699 -87.1145 TS 32 6 16
1892255N22273 1892 42 NA GM NOT_NAMED 1892-09-13 12:00:00 TS 30.5000 -87.0000 main 0 0 _____________O -1 30.5000 -87.0000 TD 30 8 20
1892255N22273 1892 42 NA NA NOT_NAMED 1892-09-13 15:00:00 TS 30.9602 -86.7835 main 0 0 _____________P -1 30.9602 -86.7835 TD 30 11 23
1892255N22273 1892 42 NA NA NOT_NAMED 1892-09-13 18:00:00 TS 31.5000 -86.5000 main 0 _____________O -1 31.5000 -86.5000 TD 30 12 24

About IBTrACS Database

This database is a web-friendly format of International Best Track Archive for Climate Stewardship (IBTrACS), a global best track data archive curated by NOAA dating back to 1842.

Updated: 2021-12-06